sensor_id;sensor_type;location;lat;lon;timestamp;P1;P2;P0
45440;PMS5003;31189;38.790;-77.084;2023-07-29T00:01:14;12;12;
45440;PMS5003;31189;38.790;-77.084;2023-07-29T00:03:40;13;12;
45440;PMS5003;31189;38.790;-77.084;2023-07-29T00:06:06;12;11;
45440;PMS5003;31189;38.790;-77.084;2023-07-29T00:08:31;14;12;
45440;PMS5003;31189;38.790;-77.084;2023-07-29T00:10:57;12;11;
45440;PMS5003;31189;38.790;-77.084;2023-07-29T00:13:23;12;9;
45440;PMS5003;31189;38.790;-77.084;2023-07-29T00:15:48;10;10;
45440;PMS5003;31189;38.790;-77.084;2023-07-29T00:18:14;13;12;
45440;PMS5003;31189;38.790;-77.084;2023-07-29T00:20:40;11;10;
45440;PMS5003;31189;38.790;-77.084;2023-07-29T00:23:05;12;9;
45440;PMS5003;31189;38.790;-77.084;2023-07-29T00:25:31;14;12;
45440;PMS5003;31189;38.790;-77.084;2023-07-29T00:27:58;10;10;
45440;PMS5003;31189;38.790;-77.084;2023-07-29T00:30:22;11;10;
45440;PMS5003;31189;38.790;-77.084;2023-07-29T00:32:48;14;13;
45440;PMS5003;31189;38.790;-77.084;2023-07-29T00:35:14;9;9;
45440;PMS5003;31189;38.790;-77.084;2023-07-29T00:37:39;16;12;
45440;PMS5003;31189;38.790;-77.084;2023-07-29T00:40:07;10;10;
45440;PMS5003;31189;38.790;-77.084;2023-07-29T00:42:31;12;10;
45440;PMS5003;31189;38.790;-77.084;2023-07-29T00:44:57;10;9;
45440;PMS5003;31189;38.790;-77.084;2023-07-29T00:47:22;11;11;
45440;PMS5003;31189;38.790;-77.084;2023-07-29T00:49:48;14;10;
45440;PMS5003;31189;38.790;-77.084;2023-07-29T00:52:14;11;8;
45440;PMS5003;31189;38.790;-77.084;2023-07-29T00:54:39;12;12;
45440;PMS5003;31189;38.790;-77.084;2023-07-29T00:57:05;12;9;
45440;PMS5003;31189;38.790;-77.084;2023-07-29T00:59:31;9;9;
45440;PMS5003;31189;38.790;-77.084;2023-07-29T01:01:56;9;9;
45440;PMS5003;31189;38.790;-77.084;2023-07-29T01:04:22;10;9;
45440;PMS5003;31189;38.790;-77.084;2023-07-29T01:06:50;11;9;
45440;PMS5003;31189;38.790;-77.084;2023-07-29T01:09:13;13;9;
45440;PMS5003;31189;38.790;-77.084;2023-07-29T01:11:41;11;10;
45440;PMS5003;31189;38.790;-77.084;2023-07-29T01:14:05;13;10;
45440;PMS5003;31189;38.790;-77.084;2023-07-29T01:16:36;11;10;
45440;PMS5003;31189;38.790;-77.084;2023-07-29T01:18:55;14;11;
45440;PMS5003;31189;38.790;-77.084;2023-07-29T01:21:21;10;9;
45440;PMS5003;31189;38.790;-77.084;2023-07-29T01:23:47;7;7;
45440;PMS5003;31189;38.790;-77.084;2023-07-29T01:26:12;12;11;
45440;PMS5003;31189;38.790;-77.084;2023-07-29T01:28:43;10;8;
45440;PMS5003;31189;38.790;-77.084;2023-07-29T01:31:07;10;8;
45440;PMS5003;31189;38.790;-77.084;2023-07-29T01:33:31;7;7;
45440;PMS5003;31189;38.790;-77.084;2023-07-29T01:35:57;9;8;
45440;PMS5003;31189;38.790;-77.084;2023-07-29T01:38:23;10;9;
45440;PMS5003;31189;38.790;-77.084;2023-07-29T01:40:47;6;6;
45440;PMS5003;31189;38.790;-77.084;2023-07-29T01:43:12;9;6;
45440;PMS5003;31189;38.790;-77.084;2023-07-29T01:45:38;11;10;
45440;PMS5003;31189;38.790;-77.084;2023-07-29T01:48:04;6;6;
45440;PMS5003;31189;38.790;-77.084;2023-07-29T01:50:29;8;8;
45440;PMS5003;31189;38.790;-77.084;2023-07-29T01:52:55;8;8;
45440;PMS5003;31189;38.790;-77.084;2023-07-29T01:55:20;9;7;
45440;PMS5003;31189;38.790;-77.084;2023-07-29T01:57:46;9;7;
45440;PMS5003;31189;38.790;-77.084;2023-07-29T02:00:12;8;7;
45440;PMS5003;31189;38.790;-77.084;2023-07-29T02:02:37;6;6;
45440;PMS5003;31189;38.790;-77.084;2023-07-29T02:05:03;5;5;
45440;PMS5003;31189;38.790;-77.084;2023-07-29T02:07:29;6;5;
45440;PMS5003;31189;38.790;-77.084;2023-07-29T02:09:55;5;5;
45440;PMS5003;31189;38.790;-77.084;2023-07-29T02:12:20;4;4;
45440;PMS5003;31189;38.790;-77.084;2023-07-29T02:14:46;4;4;
45440;PMS5003;31189;38.790;-77.084;2023-07-29T02:17:12;6;5;
45440;PMS5003;31189;38.790;-77.084;2023-07-29T02:19:37;7;5;
45440;PMS5003;31189;38.790;-77.084;2023-07-29T02:22:03;5;5;
45440;PMS5003;31189;38.790;-77.084;2023-07-29T02:24:29;6;6;
45440;PMS5003;31189;38.790;-77.084;2023-07-29T02:26:54;5;3;
45440;PMS5003;31189;38.790;-77.084;2023-07-29T02:29:20;5;5;
45440;PMS5003;31189;38.790;-77.084;2023-07-29T02:31:46;9;6;
45440;PMS5003;31189;38.790;-77.084;2023-07-29T02:34:11;6;5;
45440;PMS5003;31189;38.790;-77.084;2023-07-29T02:36:37;7;5;
45440;PMS5003;31189;38.790;-77.084;2023-07-29T02:39:03;5;5;
45440;PMS5003;31189;38.790;-77.084;2023-07-29T02:41:28;6;6;
45440;PMS5003;31189;38.790;-77.084;2023-07-29T02:43:54;7;6;
45440;PMS5003;31189;38.790;-77.084;2023-07-29T02:46:20;5;5;
45440;PMS5003;31189;38.790;-77.084;2023-07-29T02:48:50;6;6;
45440;PMS5003;31189;38.790;-77.084;2023-07-29T02:51:11;6;5;
45440;PMS5003;31189;38.790;-77.084;2023-07-29T02:53:37;4;4;
45440;PMS5003;31189;38.790;-77.084;2023-07-29T02:56:02;6;4;
45440;PMS5003;31189;38.790;-77.084;2023-07-29T02:58:28;5;5;
45440;PMS5003;31189;38.790;-77.084;2023-07-29T03:00:54;7;6;
45440;PMS5003;31189;38.790;-77.084;2023-07-29T03:03:19;7;6;
45440;PMS5003;31189;38.790;-77.084;2023-07-29T03:05:45;7;5;
45440;PMS5003;31189;38.790;-77.084;2023-07-29T03:08:11;7;6;
45440;PMS5003;31189;38.790;-77.084;2023-07-29T03:10:36;5;5;
45440;PMS5003;31189;38.790;-77.084;2023-07-29T03:13:02;8;8;
45440;PMS5003;31189;38.790;-77.084;2023-07-29T03:15:28;12;7;
45440;PMS5003;31189;38.790;-77.084;2023-07-29T03:17:53;6;6;
45440;PMS5003;31189;38.790;-77.084;2023-07-29T03:20:19;7;7;
45440;PMS5003;31189;38.790;-77.084;2023-07-29T03:22:44;7;7;
45440;PMS5003;31189;38.790;-77.084;2023-07-29T03:25:10;7;7;
45440;PMS5003;31189;38.790;-77.084;2023-07-29T03:27:36;6;5;
45440;PMS5003;31189;38.790;-77.084;2023-07-29T03:30:02;6;6;
45440;PMS5003;31189;38.790;-77.084;2023-07-29T03:32:27;8;7;
45440;PMS5003;31189;38.790;-77.084;2023-07-29T03:34:53;8;8;
45440;PMS5003;31189;38.790;-77.084;2023-07-29T03:37:18;6;5;
45440;PMS5003;31189;38.790;-77.084;2023-07-29T03:39:44;10;9;
45440;PMS5003;31189;38.790;-77.084;2023-07-29T03:42:10;8;6;
45440;PMS5003;31189;38.790;-77.084;2023-07-29T03:44:35;9;6;
45440;PMS5003;31189;38.790;-77.084;2023-07-29T03:47:01;9;8;
45440;PMS5003;31189;38.790;-77.084;2023-07-29T03:49:27;11;7;
45440;PMS5003;31189;38.790;-77.084;2023-07-29T03:51:52;7;7;
45440;PMS5003;31189;38.790;-77.084;2023-07-29T03:54:18;6;6;
45440;PMS5003;31189;38.790;-77.084;2023-07-29T03:56:44;7;7;
45440;PMS5003;31189;38.790;-77.084;2023-07-29T03:59:09;8;7;
45440;PMS5003;31189;38.790;-77.084;2023-07-29T04:01:35;9;8;
45440;PMS5003;31189;38.790;-77.084;2023-07-29T04:04:01;7;7;
45440;PMS5003;31189;38.790;-77.084;2023-07-29T04:06:26;9;6;
45440;PMS5003;31189;38.790;-77.084;2023-07-29T04:08:52;7;6;
45440;PMS5003;31189;38.790;-77.084;2023-07-29T04:11:18;8;8;
45440;PMS5003;31189;38.790;-77.084;2023-07-29T04:13:43;8;8;
45440;PMS5003;31189;38.790;-77.084;2023-07-29T04:16:09;9;7;
45440;PMS5003;31189;38.790;-77.084;2023-07-29T04:18:35;5;5;
45440;PMS5003;31189;38.790;-77.084;2023-07-29T04:21:00;7;7;
45440;PMS5003;31189;38.790;-77.084;2023-07-29T04:23:26;13;10;
45440;PMS5003;31189;38.790;-77.084;2023-07-29T04:25:52;8;8;
45440;PMS5003;31189;38.790;-77.084;2023-07-29T04:28:17;7;7;
45440;PMS5003;31189;38.790;-77.084;2023-07-29T04:30:43;8;7;
45440;PMS5003;31189;38.790;-77.084;2023-07-29T04:33:08;10;8;
45440;PMS5003;31189;38.790;-77.084;2023-07-29T04:35:34;8;7;
45440;PMS5003;31189;38.790;-77.084;2023-07-29T04:38:00;6;6;
45440;PMS5003;31189;38.790;-77.084;2023-07-29T04:40:25;7;7;
45440;PMS5003;31189;38.790;-77.084;2023-07-29T04:42:51;7;6;
45440;PMS5003;31189;38.790;-77.084;2023-07-29T04:45:17;8;8;
45440;PMS5003;31189;38.790;-77.084;2023-07-29T04:47:43;7;7;
45440;PMS5003;31189;38.790;-77.084;2023-07-29T04:50:08;6;6;
45440;PMS5003;31189;38.790;-77.084;2023-07-29T04:52:34;6;6;
45440;PMS5003;31189;38.790;-77.084;2023-07-29T04:54:59;8;8;
45440;PMS5003;31189;38.790;-77.084;2023-07-29T04:57:25;10;9;
45440;PMS5003;31189;38.790;-77.084;2023-07-29T04:59:51;7;7;
45440;PMS5003;31189;38.790;-77.084;2023-07-29T05:02:16;8;7;
45440;PMS5003;31189;38.790;-77.084;2023-07-29T05:04:42;11;8;
45440;PMS5003;31189;38.790;-77.084;2023-07-29T05:07:07;10;10;
45440;PMS5003;31189;38.790;-77.084;2023-07-29T05:09:33;6;6;
45440;PMS5003;31189;38.790;-77.084;2023-07-29T05:11:59;10;7;
45440;PMS5003;31189;38.790;-77.084;2023-07-29T05:14:24;7;7;
45440;PMS5003;31189;38.790;-77.084;2023-07-29T05:16:50;5;5;
45440;PMS5003;31189;38.790;-77.084;2023-07-29T05:19:15;13;6;
45440;PMS5003;31189;38.790;-77.084;2023-07-29T05:21:41;9;6;
45440;PMS5003;31189;38.790;-77.084;2023-07-29T05:24:07;7;7;
45440;PMS5003;31189;38.790;-77.084;2023-07-29T05:26:32;8;6;
45440;PMS5003;31189;38.790;-77.084;2023-07-29T05:28:58;9;6;
45440;PMS5003;31189;38.790;-77.084;2023-07-29T05:31:24;9;8;
45440;PMS5003;31189;38.790;-77.084;2023-07-29T05:33:49;8;8;
45440;PMS5003;31189;38.790;-77.084;2023-07-29T05:36:15;10;10;
45440;PMS5003;31189;38.790;-77.084;2023-07-29T05:38:40;11;9;
45440;PMS5003;31189;38.790;-77.084;2023-07-29T05:41:06;8;5;
45440;PMS5003;31189;38.790;-77.084;2023-07-29T05:43:32;9;8;
45440;PMS5003;31189;38.790;-77.084;2023-07-29T05:45:57;20;8;
45440;PMS5003;31189;38.790;-77.084;2023-07-29T05:48:23;8;7;
45440;PMS5003;31189;38.790;-77.084;2023-07-29T05:50:48;8;7;
45440;PMS5003;31189;38.790;-77.084;2023-07-29T05:53:14;8;7;
45440;PMS5003;31189;38.790;-77.084;2023-07-29T05:55:39;7;6;
45440;PMS5003;31189;38.790;-77.084;2023-07-29T05:58:05;8;7;
45440;PMS5003;31189;38.790;-77.084;2023-07-29T06:00:30;7;6;
45440;PMS5003;31189;38.790;-77.084;2023-07-29T06:02:56;12;7;
45440;PMS5003;31189;38.790;-77.084;2023-07-29T06:05:22;7;7;
45440;PMS5003;31189;38.790;-77.084;2023-07-29T06:07:47;7;7;
45440;PMS5003;31189;38.790;-77.084;2023-07-29T06:10:13;7;7;
45440;PMS5003;31189;38.790;-77.084;2023-07-29T06:12:39;8;7;
45440;PMS5003;31189;38.790;-77.084;2023-07-29T06:15:05;8;8;
45440;PMS5003;31189;38.790;-77.084;2023-07-29T06:17:30;5;4;
45440;PMS5003;31189;38.790;-77.084;2023-07-29T06:19:56;5;5;
45440;PMS5003;31189;38.790;-77.084;2023-07-29T06:22:21;5;5;
45440;PMS5003;31189;38.790;-77.084;2023-07-29T06:24:46;6;6;
45440;PMS5003;31189;38.790;-77.084;2023-07-29T06:27:12;8;6;
45440;PMS5003;31189;38.790;-77.084;2023-07-29T06:29:38;6;6;
45440;PMS5003;31189;38.790;-77.084;2023-07-29T06:32:04;9;7;
45440;PMS5003;31189;38.790;-77.084;2023-07-29T06:34:29;10;8;
45440;PMS5003;31189;38.790;-77.084;2023-07-29T06:36:55;8;8;
45440;PMS5003;31189;38.790;-77.084;2023-07-29T06:39:20;9;8;
45440;PMS5003;31189;38.790;-77.084;2023-07-29T06:41:46;7;7;
45440;PMS5003;31189;38.790;-77.084;2023-07-29T06:44:11;8;8;
45440;PMS5003;31189;38.790;-77.084;2023-07-29T06:46:37;10;7;
45440;PMS5003;31189;38.790;-77.084;2023-07-29T06:49:03;7;7;
45440;PMS5003;31189;38.790;-77.084;2023-07-29T06:51:28;11;8;
45440;PMS5003;31189;38.790;-77.084;2023-07-29T06:53:54;8;7;
45440;PMS5003;31189;38.790;-77.084;2023-07-29T06:56:19;7;6;
45440;PMS5003;31189;38.790;-77.084;2023-07-29T06:58:46;10;7;
45440;PMS5003;31189;38.790;-77.084;2023-07-29T07:01:11;9;8;
45440;PMS5003;31189;38.790;-77.084;2023-07-29T07:03:36;9;7;
45440;PMS5003;31189;38.790;-77.084;2023-07-29T07:06:02;9;9;
45440;PMS5003;31189;38.790;-77.084;2023-07-29T07:08:28;7;7;
45440;PMS5003;31189;38.790;-77.084;2023-07-29T07:10:53;10;7;
45440;PMS5003;31189;38.790;-77.084;2023-07-29T07:13:19;10;8;
45440;PMS5003;31189;38.790;-77.084;2023-07-29T07:15:45;6;6;
45440;PMS5003;31189;38.790;-77.084;2023-07-29T07:18:10;6;6;
45440;PMS5003;31189;38.790;-77.084;2023-07-29T07:20:36;7;7;
45440;PMS5003;31189;38.790;-77.084;2023-07-29T07:23:01;13;9;
45440;PMS5003;31189;38.790;-77.084;2023-07-29T07:25:27;11;9;
45440;PMS5003;31189;38.790;-77.084;2023-07-29T07:27:53;10;7;
45440;PMS5003;31189;38.790;-77.084;2023-07-29T07:30:18;8;8;
45440;PMS5003;31189;38.790;-77.084;2023-07-29T07:32:44;10;9;
45440;PMS5003;31189;38.790;-77.084;2023-07-29T07:35:10;9;7;
45440;PMS5003;31189;38.790;-77.084;2023-07-29T07:37:35;8;6;
45440;PMS5003;31189;38.790;-77.084;2023-07-29T07:40:01;8;7;
45440;PMS5003;31189;38.790;-77.084;2023-07-29T07:42:27;5;5;
45440;PMS5003;31189;38.790;-77.084;2023-07-29T07:44:52;10;8;
45440;PMS5003;31189;38.790;-77.084;2023-07-29T07:47:18;7;5;
45440;PMS5003;31189;38.790;-77.084;2023-07-29T07:49:44;9;8;
45440;PMS5003;31189;38.790;-77.084;2023-07-29T07:52:09;10;8;
45440;PMS5003;31189;38.790;-77.084;2023-07-29T07:54:35;10;9;
45440;PMS5003;31189;38.790;-77.084;2023-07-29T07:57:01;10;6;
45440;PMS5003;31189;38.790;-77.084;2023-07-29T07:59:26;11;9;
45440;PMS5003;31189;38.790;-77.084;2023-07-29T08:01:52;8;8;
45440;PMS5003;31189;38.790;-77.084;2023-07-29T08:04:17;11;9;
45440;PMS5003;31189;38.790;-77.084;2023-07-29T08:06:48;9;8;
45440;PMS5003;31189;38.790;-77.084;2023-07-29T08:09:09;10;10;
45440;PMS5003;31189;38.790;-77.084;2023-07-29T08:11:34;10;9;
45440;PMS5003;31189;38.790;-77.084;2023-07-29T08:14:00;7;6;
45440;PMS5003;31189;38.790;-77.084;2023-07-29T08:16:26;10;9;
45440;PMS5003;31189;38.790;-77.084;2023-07-29T08:18:51;8;8;
45440;PMS5003;31189;38.790;-77.084;2023-07-29T08:21:17;10;8;
45440;PMS5003;31189;38.790;-77.084;2023-07-29T08:23:43;9;8;
45440;PMS5003;31189;38.790;-77.084;2023-07-29T08:26:08;9;7;
45440;PMS5003;31189;38.790;-77.084;2023-07-29T08:28:34;6;6;
45440;PMS5003;31189;38.790;-77.084;2023-07-29T08:31:00;9;7;
45440;PMS5003;31189;38.790;-77.084;2023-07-29T08:33:25;8;7;
45440;PMS5003;31189;38.790;-77.084;2023-07-29T08:35:51;8;6;
45440;PMS5003;31189;38.790;-77.084;2023-07-29T08:38:16;8;8;
45440;PMS5003;31189;38.790;-77.084;2023-07-29T08:40:42;17;6;
45440;PMS5003;31189;38.790;-77.084;2023-07-29T08:43:07;9;6;
45440;PMS5003;31189;38.790;-77.084;2023-07-29T08:45:34;10;10;
45440;PMS5003;31189;38.790;-77.084;2023-07-29T08:47:59;9;8;
45440;PMS5003;31189;38.790;-77.084;2023-07-29T08:50:24;10;8;
45440;PMS5003;31189;38.790;-77.084;2023-07-29T08:52:50;8;8;
45440;PMS5003;31189;38.790;-77.084;2023-07-29T08:55:15;6;6;
45440;PMS5003;31189;38.790;-77.084;2023-07-29T08:57:41;9;7;
45440;PMS5003;31189;38.790;-77.084;2023-07-29T09:00:07;7;6;
45440;PMS5003;31189;38.790;-77.084;2023-07-29T09:02:32;7;5;
45440;PMS5003;31189;38.790;-77.084;2023-07-29T09:04:58;8;7;
45440;PMS5003;31189;38.790;-77.084;2023-07-29T09:07:23;10;9;
45440;PMS5003;31189;38.790;-77.084;2023-07-29T09:09:49;8;5;
45440;PMS5003;31189;38.790;-77.084;2023-07-29T09:12:14;10;7;
45440;PMS5003;31189;38.790;-77.084;2023-07-29T09:14:40;6;6;
45440;PMS5003;31189;38.790;-77.084;2023-07-29T09:17:07;6;6;
45440;PMS5003;31189;38.790;-77.084;2023-07-29T09:19:32;8;8;
45440;PMS5003;31189;38.790;-77.084;2023-07-29T09:21:56;8;8;
45440;PMS5003;31189;38.790;-77.084;2023-07-29T09:24:22;9;8;
45440;PMS5003;31189;38.790;-77.084;2023-07-29T09:26:49;7;6;
45440;PMS5003;31189;38.790;-77.084;2023-07-29T09:29:13;8;7;
45440;PMS5003;31189;38.790;-77.084;2023-07-29T09:31:39;10;8;
45440;PMS5003;31189;38.790;-77.084;2023-07-29T09:34:04;11;7;
45440;PMS5003;31189;38.790;-77.084;2023-07-29T09:36:30;8;8;
45440;PMS5003;31189;38.790;-77.084;2023-07-29T09:38:55;8;5;
45440;PMS5003;31189;38.790;-77.084;2023-07-29T09:41:22;8;7;
45440;PMS5003;31189;38.790;-77.084;2023-07-29T09:43:46;7;7;
45440;PMS5003;31189;38.790;-77.084;2023-07-29T09:46:12;10;8;
45440;PMS5003;31189;38.790;-77.084;2023-07-29T09:48:38;8;8;
45440;PMS5003;31189;38.790;-77.084;2023-07-29T09:53:28;10;7;
45440;PMS5003;31189;38.790;-77.084;2023-07-29T09:55:54;6;6;
45440;PMS5003;31189;38.790;-77.084;2023-07-29T09:58:25;8;8;
45440;PMS5003;31189;38.790;-77.084;2023-07-29T10:00:45;11;7;
45440;PMS5003;31189;38.790;-77.084;2023-07-29T10:03:11;9;8;
45440;PMS5003;31189;38.790;-77.084;2023-07-29T10:05:36;11;8;
45440;PMS5003;31189;38.790;-77.084;2023-07-29T10:08:02;7;6;
45440;PMS5003;31189;38.790;-77.084;2023-07-29T10:10:28;7;7;
45440;PMS5003;31189;38.790;-77.084;2023-07-29T10:12:53;11;8;
45440;PMS5003;31189;38.790;-77.084;2023-07-29T10:15:19;10;7;
45440;PMS5003;31189;38.790;-77.084;2023-07-29T10:17:45;8;7;
45440;PMS5003;31189;38.790;-77.084;2023-07-29T10:20:10;8;7;
45440;PMS5003;31189;38.790;-77.084;2023-07-29T10:22:36;9;8;
45440;PMS5003;31189;38.790;-77.084;2023-07-29T10:25:03;11;5;
45440;PMS5003;31189;38.790;-77.084;2023-07-29T10:27:27;13;7;
45440;PMS5003;31189;38.790;-77.084;2023-07-29T10:29:53;8;7;
45440;PMS5003;31189;38.790;-77.084;2023-07-29T10:32:18;6;6;
45440;PMS5003;31189;38.790;-77.084;2023-07-29T10:34:44;10;8;
45440;PMS5003;31189;38.790;-77.084;2023-07-29T10:37:10;7;7;
45440;PMS5003;31189;38.790;-77.084;2023-07-29T10:39:38;9;9;
45440;PMS5003;31189;38.790;-77.084;2023-07-29T10:42:02;8;8;
45440;PMS5003;31189;38.790;-77.084;2023-07-29T10:46:52;12;9;
45440;PMS5003;31189;38.790;-77.084;2023-07-29T10:49:18;13;7;
45440;PMS5003;31189;38.790;-77.084;2023-07-29T10:51:43;11;9;
45440;PMS5003;31189;38.790;-77.084;2023-07-29T10:54:10;8;7;
45440;PMS5003;31189;38.790;-77.084;2023-07-29T10:56:35;8;7;
45440;PMS5003;31189;38.790;-77.084;2023-07-29T10:59:02;6;6;
45440;PMS5003;31189;38.790;-77.084;2023-07-29T11:01:26;7;7;
45440;PMS5003;31189;38.790;-77.084;2023-07-29T11:06:17;8;7;
45440;PMS5003;31189;38.790;-77.084;2023-07-29T11:08:43;7;7;
45440;PMS5003;31189;38.790;-77.084;2023-07-29T11:11:11;6;6;
45440;PMS5003;31189;38.790;-77.084;2023-07-29T11:13:35;7;7;
45440;PMS5003;31189;38.790;-77.084;2023-07-29T11:16:00;8;8;
45440;PMS5003;31189;38.790;-77.084;2023-07-29T11:18:26;9;7;
45440;PMS5003;31189;38.790;-77.084;2023-07-29T11:20:51;11;8;
45440;PMS5003;31189;38.790;-77.084;2023-07-29T11:23:17;7;6;
45440;PMS5003;31189;38.790;-77.084;2023-07-29T11:25:42;9;8;
45440;PMS5003;31189;38.790;-77.084;2023-07-29T11:28:08;8;7;
45440;PMS5003;31189;38.790;-77.084;2023-07-29T11:30:34;10;7;
45440;PMS5003;31189;38.790;-77.084;2023-07-29T11:32:59;7;7;
45440;PMS5003;31189;38.790;-77.084;2023-07-29T11:35:25;7;7;
45440;PMS5003;31189;38.790;-77.084;2023-07-29T11:37:51;9;5;
45440;PMS5003;31189;38.790;-77.084;2023-07-29T11:40:16;17;10;
45440;PMS5003;31189;38.790;-77.084;2023-07-29T11:42:41;7;6;
45440;PMS5003;31189;38.790;-77.084;2023-07-29T11:45:12;13;8;
45440;PMS5003;31189;38.790;-77.084;2023-07-29T11:47:32;14;8;
45440;PMS5003;31189;38.790;-77.084;2023-07-29T11:49:58;7;7;
45440;PMS5003;31189;38.790;-77.084;2023-07-29T11:52:23;10;8;
45440;PMS5003;31189;38.790;-77.084;2023-07-29T11:54:49;9;9;
45440;PMS5003;31189;38.790;-77.084;2023-07-29T11:57:15;10;8;
45440;PMS5003;31189;38.790;-77.084;2023-07-29T11:59:40;12;9;
45440;PMS5003;31189;38.790;-77.084;2023-07-29T12:02:08;6;6;
45440;PMS5003;31189;38.790;-77.084;2023-07-29T12:04:32;9;8;
45440;PMS5003;31189;38.790;-77.084;2023-07-29T12:06:57;6;6;
45440;PMS5003;31189;38.790;-77.084;2023-07-29T12:09:23;10;8;
45440;PMS5003;31189;38.790;-77.084;2023-07-29T12:11:48;7;6;
45440;PMS5003;31189;38.790;-77.084;2023-07-29T12:14:16;10;7;
45440;PMS5003;31189;38.790;-77.084;2023-07-29T12:16:41;12;8;
45440;PMS5003;31189;38.790;-77.084;2023-07-29T12:19:05;8;6;
45440;PMS5003;31189;38.790;-77.084;2023-07-29T12:21:31;8;6;
45440;PMS5003;31189;38.790;-77.084;2023-07-29T12:23:56;11;8;
45440;PMS5003;31189;38.790;-77.084;2023-07-29T12:26:26;7;7;
45440;PMS5003;31189;38.790;-77.084;2023-07-29T12:28:48;11;10;
45440;PMS5003;31189;38.790;-77.084;2023-07-29T12:31:13;9;8;
45440;PMS5003;31189;38.790;-77.084;2023-07-29T12:33:39;9;8;
45440;PMS5003;31189;38.790;-77.084;2023-07-29T12:36:05;9;8;
45440;PMS5003;31189;38.790;-77.084;2023-07-29T12:38:30;8;8;
45440;PMS5003;31189;38.790;-77.084;2023-07-29T12:40:56;8;8;
45440;PMS5003;31189;38.790;-77.084;2023-07-29T12:43:21;10;9;
45440;PMS5003;31189;38.790;-77.084;2023-07-29T12:45:49;10;7;
45440;PMS5003;31189;38.790;-77.084;2023-07-29T12:48:13;8;8;
45440;PMS5003;31189;38.790;-77.084;2023-07-29T12:50:38;10;7;
45440;PMS5003;31189;38.790;-77.084;2023-07-29T12:53:04;11;8;
45440;PMS5003;31189;38.790;-77.084;2023-07-29T12:55:30;15;10;
45440;PMS5003;31189;38.790;-77.084;2023-07-29T12:57:55;8;7;
45440;PMS5003;31189;38.790;-77.084;2023-07-29T13:00:21;10;9;
45440;PMS5003;31189;38.790;-77.084;2023-07-29T13:02:47;8;8;
45440;PMS5003;31189;38.790;-77.084;2023-07-29T13:05:12;8;8;
45440;PMS5003;31189;38.790;-77.084;2023-07-29T13:07:38;7;7;
45440;PMS5003;31189;38.790;-77.084;2023-07-29T13:10:04;13;10;
45440;PMS5003;31189;38.790;-77.084;2023-07-29T13:12:29;11;10;
45440;PMS5003;31189;38.790;-77.084;2023-07-29T13:14:55;11;7;
45440;PMS5003;31189;38.790;-77.084;2023-07-29T13:17:21;11;10;
45440;PMS5003;31189;38.790;-77.084;2023-07-29T13:19:46;10;9;
45440;PMS5003;31189;38.790;-77.084;2023-07-29T13:22:12;11;10;
45440;PMS5003;31189;38.790;-77.084;2023-07-29T13:24:38;13;11;
45440;PMS5003;31189;38.790;-77.084;2023-07-29T13:27:04;10;9;
45440;PMS5003;31189;38.790;-77.084;2023-07-29T13:29:29;9;8;
45440;PMS5003;31189;38.790;-77.084;2023-07-29T13:31:54;9;9;
45440;PMS5003;31189;38.790;-77.084;2023-07-29T13:34:20;12;8;
45440;PMS5003;31189;38.790;-77.084;2023-07-29T13:36:46;10;9;
45440;PMS5003;31189;38.790;-77.084;2023-07-29T13:39:11;10;10;
45440;PMS5003;31189;38.790;-77.084;2023-07-29T13:41:37;10;10;
45440;PMS5003;31189;38.790;-77.084;2023-07-29T13:44:02;10;10;
45440;PMS5003;31189;38.790;-77.084;2023-07-29T13:46:28;12;9;
45440;PMS5003;31189;38.790;-77.084;2023-07-29T13:48:54;12;12;
45440;PMS5003;31189;38.790;-77.084;2023-07-29T13:51:19;13;9;
45440;PMS5003;31189;38.790;-77.084;2023-07-29T13:53:45;15;13;
45440;PMS5003;31189;38.790;-77.084;2023-07-29T13:56:11;12;11;
45440;PMS5003;31189;38.790;-77.084;2023-07-29T13:58:36;12;12;
45440;PMS5003;31189;38.790;-77.084;2023-07-29T14:01:02;13;11;
45440;PMS5003;31189;38.790;-77.084;2023-07-29T14:03:28;11;11;
45440;PMS5003;31189;38.790;-77.084;2023-07-29T14:05:54;12;12;
45440;PMS5003;31189;38.790;-77.084;2023-07-29T14:08:19;10;10;
45440;PMS5003;31189;38.790;-77.084;2023-07-29T14:10:45;17;12;
45440;PMS5003;31189;38.790;-77.084;2023-07-29T14:13:11;13;10;
45440;PMS5003;31189;38.790;-77.084;2023-07-29T14:15:36;16;13;
45440;PMS5003;31189;38.790;-77.084;2023-07-29T14:18:01;13;11;
45440;PMS5003;31189;38.790;-77.084;2023-07-29T14:20:27;13;11;
45440;PMS5003;31189;38.790;-77.084;2023-07-29T14:22:53;21;15;
45440;PMS5003;31189;38.790;-77.084;2023-07-29T14:25:18;14;11;
45440;PMS5003;31189;38.790;-77.084;2023-07-29T14:27:43;26;13;
45440;PMS5003;31189;38.790;-77.084;2023-07-29T14:30:09;11;11;
45440;PMS5003;31189;38.790;-77.084;2023-07-29T14:32:34;15;13;
45440;PMS5003;31189;38.790;-77.084;2023-07-29T14:35:00;14;14;
45440;PMS5003;31189;38.790;-77.084;2023-07-29T14:37:26;16;14;
45440;PMS5003;31189;38.790;-77.084;2023-07-29T14:39:51;26;12;
45440;PMS5003;31189;38.790;-77.084;2023-07-29T14:42:17;15;13;
45440;PMS5003;31189;38.790;-77.084;2023-07-29T14:44:42;14;14;
45440;PMS5003;31189;38.790;-77.084;2023-07-29T14:47:08;14;12;
45440;PMS5003;31189;38.790;-77.084;2023-07-29T14:49:34;15;13;
45440;PMS5003;31189;38.790;-77.084;2023-07-29T14:51:59;11;10;
45440;PMS5003;31189;38.790;-77.084;2023-07-29T14:54:25;14;13;
45440;PMS5003;31189;38.790;-77.084;2023-07-29T14:56:51;19;13;
45440;PMS5003;31189;38.790;-77.084;2023-07-29T14:59:16;13;12;
45440;PMS5003;31189;38.790;-77.084;2023-07-29T15:01:42;12;11;
45440;PMS5003;31189;38.790;-77.084;2023-07-29T15:04:08;14;13;
45440;PMS5003;31189;38.790;-77.084;2023-07-29T15:06:34;14;11;
45440;PMS5003;31189;38.790;-77.084;2023-07-29T15:08:59;12;12;
45440;PMS5003;31189;38.790;-77.084;2023-07-29T15:11:25;13;12;
45440;PMS5003;31189;38.790;-77.084;2023-07-29T15:13:51;14;14;
45440;PMS5003;31189;38.790;-77.084;2023-07-29T15:16:16;16;13;
45440;PMS5003;31189;38.790;-77.084;2023-07-29T15:18:42;14;12;
45440;PMS5003;31189;38.790;-77.084;2023-07-29T15:21:08;15;13;
45440;PMS5003;31189;38.790;-77.084;2023-07-29T15:23:33;16;16;
45440;PMS5003;31189;38.790;-77.084;2023-07-29T15:25:59;14;14;
45440;PMS5003;31189;38.790;-77.084;2023-07-29T15:28:25;17;13;
45440;PMS5003;31189;38.790;-77.084;2023-07-29T15:30:55;12;11;
45440;PMS5003;31189;38.790;-77.084;2023-07-29T15:33:16;14;12;
45440;PMS5003;31189;38.790;-77.084;2023-07-29T15:35:42;16;13;
45440;PMS5003;31189;38.790;-77.084;2023-07-29T15:38:08;12;11;
45440;PMS5003;31189;38.790;-77.084;2023-07-29T15:40:33;18;17;
45440;PMS5003;31189;38.790;-77.084;2023-07-29T15:42:59;13;13;
45440;PMS5003;31189;38.790;-77.084;2023-07-29T15:45:24;15;14;
45440;PMS5003;31189;38.790;-77.084;2023-07-29T15:47:50;12;12;
45440;PMS5003;31189;38.790;-77.084;2023-07-29T15:50:15;13;13;
45440;PMS5003;31189;38.790;-77.084;2023-07-29T15:52:41;15;13;
45440;PMS5003;31189;38.790;-77.084;2023-07-29T15:55:06;32;14;
45440;PMS5003;31189;38.790;-77.084;2023-07-29T15:57:32;15;13;
45440;PMS5003;31189;38.790;-77.084;2023-07-29T15:59:58;16;16;
45440;PMS5003;31189;38.790;-77.084;2023-07-29T16:02:23;19;16;